sensor_id;sensor_type;location;lat;lon;timestamp;pressure;altitude;pressure_sealevel;temperature;humidity
18504;BME280;9381;54.244;10.074;2024-03-17T00:04:39;101686.72;;;8.06;82.02
18504;BME280;9381;54.244;10.074;2024-03-17T00:09:40;101688.41;;;8.07;81.65
18504;BME280;9381;54.244;10.074;2024-03-17T00:14:41;101697.16;;;8.09;82.11
18504;BME280;9381;54.244;10.074;2024-03-17T00:19:43;101707.94;;;8.09;82.53
18504;BME280;9381;54.244;10.074;2024-03-17T00:24:43;101713.81;;;8.13;82.45
18504;BME280;9381;54.244;10.074;2024-03-17T00:29:44;101723.25;;;8.09;81.40
18504;BME280;9381;54.244;10.074;2024-03-17T00:34:45;101725.00;;;7.94;81.48
18504;BME280;9381;54.244;10.074;2024-03-17T00:39:45;101724.53;;;7.90;81.68
18504;BME280;9381;54.244;10.074;2024-03-17T00:44:45;101728.44;;;7.80;81.59
18504;BME280;9381;54.244;10.074;2024-03-17T00:49:46;101723.63;;;7.67;82.19
18504;BME280;9381;54.244;10.074;2024-03-17T00:54:47;101727.38;;;7.50;82.92
18504;BME280;9381;54.244;10.074;2024-03-17T00:59:48;101734.78;;;7.48;83.80
18504;BME280;9381;54.244;10.074;2024-03-17T01:04:48;101740.53;;;7.45;84.72
18504;BME280;9381;54.244;10.074;2024-03-17T01:09:49;101751.59;;;7.42;84.92
18504;BME280;9381;54.244;10.074;2024-03-17T01:14:49;101748.91;;;7.42;85.23
18504;BME280;9381;54.244;10.074;2024-03-17T01:19:49;101747.75;;;7.37;85.42
18504;BME280;9381;54.244;10.074;2024-03-17T01:24:51;101743.22;;;7.37;84.69
18504;BME280;9381;54.244;10.074;2024-03-17T01:29:52;101742.53;;;7.43;84.40
18504;BME280;9381;54.244;10.074;2024-03-17T01:34:52;101738.16;;;7.34;85.54
18504;BME280;9381;54.244;10.074;2024-03-17T01:39:52;101742.38;;;7.29;86.04
18504;BME280;9381;54.244;10.074;2024-03-17T01:44:53;101737.19;;;7.27;86.23
18504;BME280;9381;54.244;10.074;2024-03-17T01:49:54;101739.19;;;7.25;86.65
18504;BME280;9381;54.244;10.074;2024-03-17T01:54:54;101741.56;;;7.36;85.93
18504;BME280;9381;54.244;10.074;2024-03-17T01:59:57;101734.50;;;7.35;85.97
18504;BME280;9381;54.244;10.074;2024-03-17T02:04:57;101731.81;;;7.27;85.75
18504;BME280;9381;54.244;10.074;2024-03-17T02:09:58;101736.50;;;7.25;85.82
18504;BME280;9381;54.244;10.074;2024-03-17T02:14:59;101740.56;;;7.13;85.42
18504;BME280;9381;54.244;10.074;2024-03-17T02:19:59;101755.72;;;6.98;85.45
18504;BME280;9381;54.244;10.074;2024-03-17T02:25:00;101751.00;;;6.84;86.13
18504;BME280;9381;54.244;10.074;2024-03-17T02:30:01;101750.34;;;6.98;86.42
18504;BME280;9381;54.244;10.074;2024-03-17T02:35:02;101751.31;;;6.97;86.18
18504;BME280;9381;54.244;10.074;2024-03-17T02:40:02;101758.41;;;6.98;85.55
18504;BME280;9381;54.244;10.074;2024-03-17T02:45:08;101768.16;;;6.99;85.81
18504;BME280;9381;54.244;10.074;2024-03-17T02:50:08;101767.13;;;6.84;85.88
18504;BME280;9381;54.244;10.074;2024-03-17T02:55:10;101778.06;;;6.83;86.22
18504;BME280;9381;54.244;10.074;2024-03-17T03:00:10;101774.03;;;6.79;86.61
18504;BME280;9381;54.244;10.074;2024-03-17T03:05:13;101778.91;;;6.83;86.80
18504;BME280;9381;54.244;10.074;2024-03-17T03:10:13;101782.41;;;6.84;86.96
18504;BME280;9381;54.244;10.074;2024-03-17T03:15:14;101780.59;;;6.92;86.71
18504;BME280;9381;54.244;10.074;2024-03-17T03:20:14;101785.31;;;6.90;86.99
18504;BME280;9381;54.244;10.074;2024-03-17T03:25:15;101786.31;;;6.89;88.22
18504;BME280;9381;54.244;10.074;2024-03-17T03:30:15;101794.38;;;6.97;87.53
18504;BME280;9381;54.244;10.074;2024-03-17T03:35:15;101788.31;;;7.03;87.99
18504;BME280;9381;54.244;10.074;2024-03-17T03:40:16;101783.97;;;7.10;87.62
18504;BME280;9381;54.244;10.074;2024-03-17T03:45:16;101795.03;;;7.07;86.80
18504;BME280;9381;54.244;10.074;2024-03-17T03:50:20;101801.44;;;6.98;85.57
18504;BME280;9381;54.244;10.074;2024-03-17T03:55:23;101792.69;;;6.80;85.34
18504;BME280;9381;54.244;10.074;2024-03-17T04:00:24;101811.81;;;6.53;86.09
18504;BME280;9381;54.244;10.074;2024-03-17T04:05:29;101799.00;;;6.47;85.99
18504;BME280;9381;54.244;10.074;2024-03-17T04:10:30;101801.66;;;6.31;86.58
18504;BME280;9381;54.244;10.074;2024-03-17T04:15:30;101800.94;;;6.21;86.70
18504;BME280;9381;54.244;10.074;2024-03-17T04:20:30;101794.25;;;6.25;88.03
18504;BME280;9381;54.244;10.074;2024-03-17T04:25:31;101792.94;;;6.37;88.16
18504;BME280;9381;54.244;10.074;2024-03-17T04:30:31;101790.94;;;6.39;88.38
18504;BME280;9381;54.244;10.074;2024-03-17T04:35:36;101788.94;;;6.49;88.65
18504;BME280;9381;54.244;10.074;2024-03-17T04:40:41;101792.28;;;6.51;88.25
18504;BME280;9381;54.244;10.074;2024-03-17T04:45:41;101795.47;;;6.47;87.91
18504;BME280;9381;54.244;10.074;2024-03-17T04:50:41;101800.53;;;6.50;88.25
18504;BME280;9381;54.244;10.074;2024-03-17T04:55:42;101801.34;;;6.50;87.95
18504;BME280;9381;54.244;10.074;2024-03-17T05:00:42;101822.56;;;6.53;87.64
18504;BME280;9381;54.244;10.074;2024-03-17T05:05:42;101822.56;;;6.53;87.56
18504;BME280;9381;54.244;10.074;2024-03-17T05:10:43;101824.03;;;6.48;87.46
18504;BME280;9381;54.244;10.074;2024-03-17T05:15:43;101836.34;;;6.17;84.19
18504;BME280;9381;54.244;10.074;2024-03-17T05:20:43;101839.19;;;6.15;87.36
18504;BME280;9381;54.244;10.074;2024-03-17T05:25:53;101845.09;;;6.19;87.97
18504;BME280;9381;54.244;10.074;2024-03-17T05:30:54;101843.66;;;5.99;86.03
18504;BME280;9381;54.244;10.074;2024-03-17T05:35:56;101842.31;;;5.95;86.67
18504;BME280;9381;54.244;10.074;2024-03-17T05:46:00;101864.69;;;5.60;85.28
18504;BME280;9381;54.244;10.074;2024-03-17T05:51:01;101865.41;;;5.45;85.47
18504;BME280;9381;54.244;10.074;2024-03-17T05:56:05;101881.22;;;5.31;86.33
18504;BME280;9381;54.244;10.074;2024-03-17T06:01:07;101898.66;;;5.27;87.33
18504;BME280;9381;54.244;10.074;2024-03-17T06:06:08;101910.53;;;5.24;86.33
18504;BME280;9381;54.244;10.074;2024-03-17T06:11:10;101906.63;;;5.19;87.62
18504;BME280;9381;54.244;10.074;2024-03-17T06:16:10;101910.59;;;5.15;88.33
18504;BME280;9381;54.244;10.074;2024-03-17T06:21:11;101916.03;;;5.23;89.36
18504;BME280;9381;54.244;10.074;2024-03-17T06:26:12;101925.91;;;5.40;90.67
18504;BME280;9381;54.244;10.074;2024-03-17T06:31:13;101927.88;;;5.72;91.35
18504;BME280;9381;54.244;10.074;2024-03-17T06:36:13;101928.06;;;5.96;91.83
18504;BME280;9381;54.244;10.074;2024-03-17T06:41:13;101924.19;;;6.24;91.44
18504;BME280;9381;54.244;10.074;2024-03-17T06:46:15;101932.97;;;6.26;91.35
18504;BME280;9381;54.244;10.074;2024-03-17T06:51:15;101936.56;;;6.43;91.36
18504;BME280;9381;54.244;10.074;2024-03-17T06:56:16;101933.72;;;6.52;91.55
18504;BME280;9381;54.244;10.074;2024-03-17T07:01:16;101948.94;;;6.69;91.05
18504;BME280;9381;54.244;10.074;2024-03-17T07:06:17;101943.75;;;6.68;90.14
18504;BME280;9381;54.244;10.074;2024-03-17T07:11:17;101950.59;;;6.62;90.34
18504;BME280;9381;54.244;10.074;2024-03-17T07:16:18;101954.63;;;6.66;90.37
18504;BME280;9381;54.244;10.074;2024-03-17T07:21:18;101955.03;;;6.87;89.64
18504;BME280;9381;54.244;10.074;2024-03-17T07:26:19;101957.13;;;7.01;89.39
18504;BME280;9381;54.244;10.074;2024-03-17T07:31:19;101949.72;;;7.03;88.67
18504;BME280;9381;54.244;10.074;2024-03-17T07:36:19;101948.38;;;7.07;88.64
18504;BME280;9381;54.244;10.074;2024-03-17T07:41:22;101956.84;;;7.28;87.55
18504;BME280;9381;54.244;10.074;2024-03-17T07:46:24;101954.13;;;7.20;84.31
18504;BME280;9381;54.244;10.074;2024-03-17T07:51:24;101951.44;;;7.20;83.26
18504;BME280;9381;54.244;10.074;2024-03-17T07:56:24;101963.53;;;7.08;82.09
18504;BME280;9381;54.244;10.074;2024-03-17T08:01:25;101965.59;;;7.38;81.69
18504;BME280;9381;54.244;10.074;2024-03-17T08:06:26;101965.59;;;7.38;80.81
18504;BME280;9381;54.244;10.074;2024-03-17T08:11:27;101972.72;;;7.63;79.29
18504;BME280;9381;54.244;10.074;2024-03-17T08:16:27;101973.72;;;7.62;78.08
18504;BME280;9381;54.244;10.074;2024-03-17T08:21:29;101968.16;;;7.72;77.87
18504;BME280;9381;54.244;10.074;2024-03-17T08:26:30;101971.19;;;7.77;77.98
18504;BME280;9381;54.244;10.074;2024-03-17T08:31:31;101978.78;;;7.81;76.84
18504;BME280;9381;54.244;10.074;2024-03-17T08:36:31;101968.63;;;8.23;75.78
18504;BME280;9381;54.244;10.074;2024-03-17T08:41:32;101978.75;;;8.29;74.81
18504;BME280;9381;54.244;10.074;2024-03-17T08:46:32;101978.72;;;8.45;74.47
18504;BME280;9381;54.244;10.074;2024-03-17T08:51:33;101974.78;;;8.56;72.84
18504;BME280;9381;54.244;10.074;2024-03-17T08:56:33;101973.97;;;8.55;72.42
18504;BME280;9381;54.244;10.074;2024-03-17T09:01:35;101972.91;;;8.64;72.95
18504;BME280;9381;54.244;10.074;2024-03-17T09:06:36;101957.38;;;8.74;73.33
18504;BME280;9381;54.244;10.074;2024-03-17T09:11:36;101972.31;;;8.84;72.04
18504;BME280;9381;54.244;10.074;2024-03-17T09:16:36;101962.53;;;8.83;71.72
18504;BME280;9381;54.244;10.074;2024-03-17T09:21:37;101970.28;;;9.17;70.46
18504;BME280;9381;54.244;10.074;2024-03-17T09:26:39;101972.72;;;9.34;70.14
18504;BME280;9381;54.244;10.074;2024-03-17T09:31:40;101962.91;;;9.64;69.06
18504;BME280;9381;54.244;10.074;2024-03-17T09:36:41;101971.28;;;9.69;69.45
18504;BME280;9381;54.244;10.074;2024-03-17T09:41:44;101967.28;;;10.02;70.10
18504;BME280;9381;54.244;10.074;2024-03-17T09:46:45;101961.88;;;10.24;67.13
18504;BME280;9381;54.244;10.074;2024-03-17T09:51:48;101980.25;;;10.43;66.88
18504;BME280;9381;54.244;10.074;2024-03-17T09:56:50;101973.34;;;10.70;65.59
18504;BME280;9381;54.244;10.074;2024-03-17T10:01:51;101978.16;;;11.03;64.17
18504;BME280;9381;54.244;10.074;2024-03-17T10:06:52;101983.38;;;11.75;63.06
18504;BME280;9381;54.244;10.074;2024-03-17T10:11:56;101978.50;;;12.40;61.12
18504;BME280;9381;54.244;10.074;2024-03-17T10:16:56;101971.88;;;13.30;60.01
18504;BME280;9381;54.244;10.074;2024-03-17T10:22:00;101982.47;;;14.11;57.03
18504;BME280;9381;54.244;10.074;2024-03-17T10:27:02;101985.34;;;14.74;55.85
18504;BME280;9381;54.244;10.074;2024-03-17T10:32:04;101991.94;;;15.55;54.92
18504;BME280;9381;54.244;10.074;2024-03-17T10:42:12;101989.97;;;16.73;51.68
18504;BME280;9381;54.244;10.074;2024-03-17T10:47:25;101988.75;;;17.05;49.74
18504;BME280;9381;54.244;10.074;2024-03-17T10:52:26;101995.72;;;17.19;50.57
18504;BME280;9381;54.244;10.074;2024-03-17T11:02:36;101988.06;;;16.55;48.03
18504;BME280;9381;54.244;10.074;2024-03-17T11:07:37;101994.38;;;17.10;50.69
18504;BME280;9381;54.244;10.074;2024-03-17T11:17:49;101986.34;;;17.62;47.42
18504;BME280;9381;54.244;10.074;2024-03-17T11:22:55;101979.41;;;18.41;46.35
18504;BME280;9381;54.244;10.074;2024-03-17T11:27:59;101975.31;;;18.78;46.02
18504;BME280;9381;54.244;10.074;2024-03-17T11:33:03;101980.56;;;18.57;45.57
18504;BME280;9381;54.244;10.074;2024-03-17T11:38:04;101980.56;;;18.45;45.06
18504;BME280;9381;54.244;10.074;2024-03-17T11:43:04;101975.66;;;18.24;44.81
18504;BME280;9381;54.244;10.074;2024-03-17T11:48:12;101981.19;;;17.95;44.25
18504;BME280;9381;54.244;10.074;2024-03-17T11:53:14;101977.50;;;17.89;46.28
18504;BME280;9381;54.244;10.074;2024-03-17T11:58:14;101981.16;;;18.70;46.44
18504;BME280;9381;54.244;10.074;2024-03-17T12:03:17;101978.00;;;19.01;44.67
18504;BME280;9381;54.244;10.074;2024-03-17T12:08:20;101970.75;;;19.46;44.29
18504;BME280;9381;54.244;10.074;2024-03-17T12:13:20;101967.59;;;19.54;45.56
18504;BME280;9381;54.244;10.074;2024-03-17T12:18:21;101962.50;;;19.18;44.12
18504;BME280;9381;54.244;10.074;2024-03-17T12:23:21;101963.59;;;19.45;43.00
18504;BME280;9381;54.244;10.074;2024-03-17T12:28:23;101945.94;;;19.86;41.59
18504;BME280;9381;54.244;10.074;2024-03-17T12:33:23;101938.38;;;19.20;41.59
18504;BME280;9381;54.244;10.074;2024-03-17T12:38:24;101943.13;;;19.97;42.79
18504;BME280;9381;54.244;10.074;2024-03-17T12:43:25;101936.56;;;18.86;42.97
18504;BME280;9381;54.244;10.074;2024-03-17T12:48:26;101936.59;;;18.75;43.67
18504;BME280;9381;54.244;10.074;2024-03-17T12:53:26;101934.22;;;18.78;43.72
18504;BME280;9381;54.244;10.074;2024-03-17T12:58:27;101923.84;;;18.57;44.21
18504;BME280;9381;54.244;10.074;2024-03-17T13:03:46;101919.44;;;18.10;44.21
18504;BME280;9381;54.244;10.074;2024-03-17T13:08:46;101929.53;;;17.76;45.50
18504;BME280;9381;54.244;10.074;2024-03-17T13:13:46;101915.47;;;17.83;46.97
18504;BME280;9381;54.244;10.074;2024-03-17T13:18:47;101912.19;;;17.23;46.30
18504;BME280;9381;54.244;10.074;2024-03-17T13:23:47;101916.94;;;16.98;46.78
18504;BME280;9381;54.244;10.074;2024-03-17T13:28:50;101897.75;;;16.68;47.31
18504;BME280;9381;54.244;10.074;2024-03-17T13:33:50;101898.03;;;16.42;47.60
18504;BME280;9381;54.244;10.074;2024-03-17T13:38:52;101897.13;;;16.06;48.65
18504;BME280;9381;54.244;10.074;2024-03-17T13:43:53;101904.59;;;15.37;48.62
18504;BME280;9381;54.244;10.074;2024-03-17T13:49:07;101893.53;;;14.88;50.91
18504;BME280;9381;54.244;10.074;2024-03-17T13:54:08;101895.31;;;14.70;51.91
18504;BME280;9381;54.244;10.074;2024-03-17T13:59:08;101899.97;;;14.43;51.36
18504;BME280;9381;54.244;10.074;2024-03-17T14:04:16;101880.75;;;14.38;53.11
18504;BME280;9381;54.244;10.074;2024-03-17T14:09:16;101904.81;;;14.15;52.87
18504;BME280;9381;54.244;10.074;2024-03-17T14:14:19;101896.91;;;13.94;52.80
18504;BME280;9381;54.244;10.074;2024-03-17T14:19:20;101901.69;;;13.79;53.37
18504;BME280;9381;54.244;10.074;2024-03-17T14:24:20;101896.47;;;13.65;52.64
18504;BME280;9381;54.244;10.074;2024-03-17T14:29:20;101881.34;;;13.10;53.85
18504;BME280;9381;54.244;10.074;2024-03-17T14:34:21;101891.78;;;13.07;53.73
18504;BME280;9381;54.244;10.074;2024-03-17T14:39:21;101882.72;;;12.93;54.08
18504;BME280;9381;54.244;10.074;2024-03-17T14:44:22;101870.53;;;12.76;54.76
18504;BME280;9381;54.244;10.074;2024-03-17T14:49:23;101862.03;;;12.45;55.60
18504;BME280;9381;54.244;10.074;2024-03-17T14:54:23;101866.13;;;11.94;55.44
18504;BME280;9381;54.244;10.074;2024-03-17T14:59:23;101866.47;;;11.58;56.25
18504;BME280;9381;54.244;10.074;2024-03-17T15:04:24;101864.44;;;11.66;56.56
18504;BME280;9381;54.244;10.074;2024-03-17T15:09:27;101852.00;;;11.51;57.04
18504;BME280;9381;54.244;10.074;2024-03-17T15:14:27;101864.41;;;11.60;56.93
18504;BME280;9381;54.244;10.074;2024-03-17T15:19:27;101867.59;;;11.69;57.53
18504;BME280;9381;54.244;10.074;2024-03-17T15:24:28;101859.34;;;11.57;57.97
18504;BME280;9381;54.244;10.074;2024-03-17T15:29:29;101863.47;;;11.52;58.35
18504;BME280;9381;54.244;10.074;2024-03-17T15:34:30;101851.75;;;11.46;58.16
18504;BME280;9381;54.244;10.074;2024-03-17T15:39:33;101850.34;;;11.29;59.05
18504;BME280;9381;54.244;10.074;2024-03-17T15:44:33;101851.22;;;11.36;59.36
18504;BME280;9381;54.244;10.074;2024-03-17T15:49:34;101845.16;;;11.34;59.06
18504;BME280;9381;54.244;10.074;2024-03-17T15:54:34;101853.88;;;11.08;59.48
18504;BME280;9381;54.244;10.074;2024-03-17T15:59:35;101859.97;;;10.75;59.62
18504;BME280;9381;54.244;10.074;2024-03-17T16:04:35;101851.00;;;10.74;60.78
18504;BME280;9381;54.244;10.074;2024-03-17T16:09:36;101854.78;;;10.59;61.29
18504;BME280;9381;54.244;10.074;2024-03-17T16:14:36;101853.75;;;10.60;61.31
18504;BME280;9381;54.244;10.074;2024-03-17T16:19:39;101855.38;;;10.40;62.86
18504;BME280;9381;54.244;10.074;2024-03-17T16:24:42;101851.72;;;10.33;62.50
18504;BME280;9381;54.244;10.074;2024-03-17T16:29:43;101844.94;;;10.22;63.49
18504;BME280;9381;54.244;10.074;2024-03-17T16:34:44;101849.59;;;10.14;62.72
18504;BME280;9381;54.244;10.074;2024-03-17T16:39:44;101848.44;;;9.94;63.83
18504;BME280;9381;54.244;10.074;2024-03-17T16:44:57;101850.13;;;9.95;64.62
18504;BME280;9381;54.244;10.074;2024-03-17T16:50:00;101856.34;;;9.81;64.34
18504;BME280;9381;54.244;10.074;2024-03-17T16:55:05;101854.31;;;9.83;65.34
18504;BME280;9381;54.244;10.074;2024-03-17T17:00:07;101847.97;;;9.76;65.42
18504;BME280;9381;54.244;10.074;2024-03-17T17:05:13;101851.84;;;9.59;66.69
18504;BME280;9381;54.244;10.074;2024-03-17T17:10:15;101857.13;;;9.52;67.54
18504;BME280;9381;54.244;10.074;2024-03-17T17:15:18;101861.31;;;9.40;67.38
18504;BME280;9381;54.244;10.074;2024-03-17T17:20:19;101858.13;;;9.37;66.95
18504;BME280;9381;54.244;10.074;2024-03-17T17:25:19;101848.16;;;9.37;67.53
18504;BME280;9381;54.244;10.074;2024-03-17T17:30:22;101846.00;;;9.33;67.03
18504;BME280;9381;54.244;10.074;2024-03-17T17:35:24;101841.56;;;9.17;68.61
18504;BME280;9381;54.244;10.074;2024-03-17T17:40:24;101836.41;;;9.08;69.47
18504;BME280;9381;54.244;10.074;2024-03-17T17:45:25;101827.31;;;8.86;69.12
18504;BME280;9381;54.244;10.074;2024-03-17T17:50:26;101826.44;;;8.86;70.14
18504;BME280;9381;54.244;10.074;2024-03-17T17:55:28;101832.25;;;8.75;71.40
18504;BME280;9381;54.244;10.074;2024-03-17T18:00:29;101830.47;;;8.68;71.79
18504;BME280;9381;54.244;10.074;2024-03-17T18:05:29;101824.13;;;8.53;73.26
18504;BME280;9381;54.244;10.074;2024-03-17T18:10:30;101826.00;;;8.44;73.99
18504;BME280;9381;54.244;10.074;2024-03-17T18:15:30;101818.16;;;8.35;75.79
18504;BME280;9381;54.244;10.074;2024-03-17T18:20:34;101818.56;;;8.24;76.42
18504;BME280;9381;54.244;10.074;2024-03-17T18:25:34;101827.34;;;8.02;78.65
18504;BME280;9381;54.244;10.074;2024-03-17T18:30:35;101819.53;;;7.76;77.84
18504;BME280;9381;54.244;10.074;2024-03-17T18:35:36;101808.75;;;7.68;79.13
18504;BME280;9381;54.244;10.074;2024-03-17T18:40:36;101806.28;;;7.59;79.31
18504;BME280;9381;54.244;10.074;2024-03-17T18:45:37;101815.53;;;7.32;80.22
18504;BME280;9381;54.244;10.074;2024-03-17T18:50:37;101815.53;;;7.40;79.97
18504;BME280;9381;54.244;10.074;2024-03-17T18:55:37;101811.84;;;7.49;79.80
18504;BME280;9381;54.244;10.074;2024-03-17T19:00:37;101815.56;;;7.24;79.28
18504;BME280;9381;54.244;10.074;2024-03-17T19:05:40;101822.44;;;7.27;79.02
18504;BME280;9381;54.244;10.074;2024-03-17T19:10:51;101819.94;;;7.17;77.63
18504;BME280;9381;54.244;10.074;2024-03-17T19:16:08;101826.50;;;7.15;77.39
18504;BME280;9381;54.244;10.074;2024-03-17T19:21:14;101829.34;;;7.21;76.68
18504;BME280;9381;54.244;10.074;2024-03-17T19:26:15;101819.59;;;7.12;77.81
18504;BME280;9381;54.244;10.074;2024-03-17T19:31:19;101812.53;;;7.11;78.10
18504;BME280;9381;54.244;10.074;2024-03-17T19:36:20;101818.44;;;7.15;77.23
18504;BME280;9381;54.244;10.074;2024-03-17T19:41:20;101811.53;;;7.20;76.99
18504;BME280;9381;54.244;10.074;2024-03-17T19:46:20;101822.47;;;7.03;76.34
18504;BME280;9381;54.244;10.074;2024-03-17T19:51:24;101832.03;;;6.89;75.71
18504;BME280;9381;54.244;10.074;2024-03-17T19:56:30;101820.25;;;6.82;76.46
18504;BME280;9381;54.244;10.074;2024-03-17T20:01:31;101829.34;;;6.97;75.87
18504;BME280;9381;54.244;10.074;2024-03-17T20:06:31;101822.94;;;7.06;75.52
18504;BME280;9381;54.244;10.074;2024-03-17T20:11:33;101826.00;;;7.11;75.69
18504;BME280;9381;54.244;10.074;2024-03-17T20:16:33;101829.34;;;7.05;75.69
18504;BME280;9381;54.244;10.074;2024-03-17T20:21:37;101824.13;;;6.96;76.81
18504;BME280;9381;54.244;10.074;2024-03-17T20:26:38;101830.31;;;6.88;77.50
18504;BME280;9381;54.244;10.074;2024-03-17T20:31:39;101829.34;;;6.89;77.79
18504;BME280;9381;54.244;10.074;2024-03-17T20:36:41;101823.63;;;6.92;78.14
18504;BME280;9381;54.244;10.074;2024-03-17T20:41:42;101818.22;;;6.84;79.07
18504;BME280;9381;54.244;10.074;2024-03-17T20:46:43;101813.50;;;6.62;79.35
18504;BME280;9381;54.244;10.074;2024-03-17T20:51:43;101809.13;;;6.77;79.37
18504;BME280;9381;54.244;10.074;2024-03-17T20:56:44;101804.94;;;6.75;79.52
18504;BME280;9381;54.244;10.074;2024-03-17T21:01:44;101793.84;;;6.70;80.33
18504;BME280;9381;54.244;10.074;2024-03-17T21:06:45;101782.41;;;6.52;81.58
18504;BME280;9381;54.244;10.074;2024-03-17T21:11:45;101777.16;;;6.50;82.36
18504;BME280;9381;54.244;10.074;2024-03-17T21:16:47;101768.81;;;6.53;83.17
18504;BME280;9381;54.244;10.074;2024-03-17T21:21:48;101782.88;;;6.47;83.87
18504;BME280;9381;54.244;10.074;2024-03-17T21:26:49;101775.28;;;6.35;83.62
18504;BME280;9381;54.244;10.074;2024-03-17T21:31:49;101784.56;;;6.48;83.59
18504;BME280;9381;54.244;10.074;2024-03-17T21:36:49;101781.53;;;6.43;83.75
18504;BME280;9381;54.244;10.074;2024-03-17T21:41:50;101782.41;;;6.52;83.36
18504;BME280;9381;54.244;10.074;2024-03-17T21:46:51;101774.16;;;6.45;84.78
18504;BME280;9381;54.244;10.074;2024-03-17T21:51:55;101780.34;;;6.46;85.00
18504;BME280;9381;54.244;10.074;2024-03-17T21:56:55;101775.31;;;6.43;85.06
18504;BME280;9381;54.244;10.074;2024-03-17T22:01:56;101771.47;;;6.45;85.50
18504;BME280;9381;54.244;10.074;2024-03-17T22:06:56;101768.28;;;6.50;85.23
18504;BME280;9381;54.244;10.074;2024-03-17T22:11:58;101777.50;;;6.39;85.16
18504;BME280;9381;54.244;10.074;2024-03-17T22:16:59;101770.75;;;6.43;85.94
18504;BME280;9381;54.244;10.074;2024-03-17T22:21:59;101763.72;;;6.34;86.24
18504;BME280;9381;54.244;10.074;2024-03-17T22:27:00;101754.97;;;6.32;86.41
18504;BME280;9381;54.244;10.074;2024-03-17T22:32:02;101745.41;;;6.30;86.34
18504;BME280;9381;54.244;10.074;2024-03-17T22:37:04;101734.16;;;6.26;86.94
18504;BME280;9381;54.244;10.074;2024-03-17T22:42:05;101734.84;;;6.36;86.49
18504;BME280;9381;54.244;10.074;2024-03-17T22:47:05;101739.34;;;6.28;86.16
18504;BME280;9381;54.244;10.074;2024-03-17T22:52:06;101721.03;;;6.31;85.86
18504;BME280;9381;54.244;10.074;2024-03-17T22:57:07;101729.78;;;6.33;85.39
18504;BME280;9381;54.244;10.074;2024-03-17T23:02:07;101721.03;;;6.23;85.15
18504;BME280;9381;54.244;10.074;2024-03-17T23:07:08;101724.75;;;6.30;84.27
18504;BME280;9381;54.244;10.074;2024-03-17T23:12:08;101715.69;;;6.39;84.09
18504;BME280;9381;54.244;10.074;2024-03-17T23:17:10;101710.63;;;6.20;83.79
18504;BME280;9381;54.244;10.074;2024-03-17T23:22:11;101714.00;;;6.30;84.25
18504;BME280;9381;54.244;10.074;2024-03-17T23:27:12;101713.13;;;6.14;84.11
18504;BME280;9381;54.244;10.074;2024-03-17T23:32:12;101696.19;;;6.21;84.38
18504;BME280;9381;54.244;10.074;2024-03-17T23:37:12;101694.50;;;6.20;83.54
18504;BME280;9381;54.244;10.074;2024-03-17T23:42:13;101693.84;;;6.18;83.96
18504;BME280;9381;54.244;10.074;2024-03-17T23:47:14;101689.78;;;6.22;83.18
18504;BME280;9381;54.244;10.074;2024-03-17T23:52:15;101701.91;;;6.26;82.52
18504;BME280;9381;54.244;10.074;2024-03-17T23:57:15;101696.22;;;6.37;82.14
